Time;durP1;ratioP1;P1;durP2;ratioP2;P2;SDS_P1;SDS_P2;PMS_P1;PMS_P2;Temp;Humidity;BMP_temperature;BMP_pressure;BME280_temperature;BME280_humidity;BME280_pressure;Samples;Min_cycle;Max_cycle;Signal;HPM_P1;HPM_P2
2023/09/06 00:00:45;;;;;;;7.07;5.27;;;23.70;77.90;;;26.45;50.25;101975.81;5035708;28;20202;-63
2023/09/06 00:03:14;;;;;;;5.80;5.20;;;23.70;78.20;;;26.42;49.94;101979.81;5035749;28;20669;-63
2023/09/06 00:05:41;;;;;;;4.77;4.37;;;23.70;78.70;;;26.40;49.78;101983.84;5035484;28;20305;-62
2023/09/06 00:08:09;;;;;;;7.37;4.97;;;23.70;78.50;;;26.38;50.42;101981.41;5034830;28;20226;-62
2023/09/06 00:10:38;;;;;;;6.03;5.53;;;23.60;78.50;;;26.36;50.34;101978.13;5035946;28;20194;-63
2023/09/06 00:13:06;;;;;;;5.50;5.10;;;23.60;78.70;;;26.32;50.32;101979.66;5033389;28;20183;-62
2023/09/06 00:15:34;;;;;;;9.90;5.80;;;23.60;78.70;;;26.29;50.48;101979.38;5018579;28;20210;-64
2023/09/06 00:18:05;;;;;;;8.80;6.60;;;23.50;78.60;;;26.22;49.86;101979.50;5030870;28;20245;-63
2023/09/06 00:20:34;;;;;;;7.43;6.83;;;23.50;78.70;;;26.16;49.90;101969.72;5035484;28;20248;-62
2023/09/06 00:23:08;;;;;;;7.93;7.23;;;23.40;78.60;;;26.12;50.85;101971.28;5035768;28;20587;-63
2023/09/06 00:25:37;;;;;;;6.10;5.60;;;23.30;79.40;;;26.06;50.72;101974.94;5029431;28;20244;-63
2023/09/06 00:28:06;;;;;;;5.67;5.13;;;23.30;79.60;;;26.00;51.27;101967.84;5034928;28;20214;-63
2023/09/06 00:30:34;;;;;;;4.47;4.07;;;23.20;79.90;;;25.96;50.81;101972.88;5035620;28;20597;-63
2023/09/06 00:33:06;;;;;;;5.20;3.77;;;23.20;80.00;;;25.92;50.82;101977.16;5028271;28;20203;-63
2023/09/06 00:35:34;;;;;;;4.23;3.83;;;23.10;80.20;;;25.87;50.83;101973.53;5015189;28;20691;-63
2023/09/06 00:38:01;;;;;;;3.57;3.27;;;23.10;80.20;;;25.83;51.24;101977.81;5668495;22;20256;-62
2023/09/06 00:40:29;;;;;;;3.77;3.20;;;23.00;80.80;;;25.79;51.14;101976.66;5015972;28;20274;-62
2023/09/06 00:43:01;;;;;;;4.00;3.53;;;22.90;80.70;;;25.75;51.12;101975.50;5015420;28;20218;-63
2023/09/06 00:45:35;;;;;;;3.13;2.83;;;22.90;81.20;;;25.71;51.52;101982.47;5022641;28;20183;-62
2023/09/06 00:48:05;;;;;;;4.03;3.13;;;22.80;81.40;;;25.68;51.71;101972.97;5019901;28;20309;-62
2023/09/06 00:50:35;;;;;;;3.30;3.00;;;22.80;81.80;;;25.66;52.40;101988.59;4995983;28;20242;-61
2023/09/06 00:53:06;;;;;;;2.97;2.77;;;22.80;81.90;;;25.65;52.09;101983.44;4995359;28;20275;-62
2023/09/06 00:55:34;;;;;;;3.43;3.13;;;22.80;81.90;;;25.63;52.05;101972.06;5001999;28;20275;-63
2023/09/06 00:58:01;;;;;;;3.70;3.40;;;22.80;81.90;;;25.62;52.40;101973.97;5014604;28;20290;-63
2023/09/06 01:00:30;;;;;;;4.33;3.60;;;22.80;81.90;;;25.62;52.35;101978.53;5015362;28;20192;-63
2023/09/06 01:02:57;;;;;;;3.30;3.00;;;22.80;81.90;;;25.59;51.85;101976.31;5015191;28;20202;-63
2023/09/06 01:05:33;;;;;;;4.20;3.80;;;22.80;81.90;;;25.57;52.06;101973.03;5014881;28;20223;-63
2023/09/06 01:08:06;;;;;;;3.50;3.20;;;22.70;81.90;;;25.55;52.33;101976.00;5014629;28;20260;-63
2023/09/06 01:10:34;;;;;;;4.20;3.57;;;22.70;81.90;;;25.54;51.82;101975.16;5014983;28;20233;-63
2023/09/06 01:13:01;;;;;;;3.53;3.23;;;22.70;81.90;;;25.53;51.71;101978.91;5014855;28;20281;-63
2023/09/06 01:15:29;;;;;;;3.30;3.00;;;22.70;81.90;;;25.51;51.77;101980.22;5014513;28;20249;-63
2023/09/06 01:18:01;;;;;;;3.23;2.93;;;22.70;82.10;;;25.46;52.40;101978.25;5010634;28;20217;-63
2023/09/06 01:20:40;;;;;;;4.37;3.27;;;22.60;82.00;;;25.41;52.10;101986.22;4995003;28;20211;-62
2023/09/06 01:23:32;;;;;;;3.73;3.10;;;22.60;82.40;;;25.38;52.21;101975.94;4995277;28;20180;-63
2023/09/06 01:25:59;;;;;;;3.47;3.17;;;22.60;82.70;;;25.37;52.35;101974.28;5009014;28;20222;-66
2023/09/06 01:28:27;;;;;;;2.97;2.77;;;22.60;82.70;;;25.36;52.55;101975.38;5033899;28;20226;-67
2023/09/06 01:30:55;;;;;;;3.20;2.77;;;22.50;83.00;;;25.35;53.28;101978.28;5031964;28;20252;-65
2023/09/06 01:33:23;;;;;;;4.07;2.77;;;22.50;83.20;;;25.34;52.57;101977.47;5009361;28;20212;-64
2023/09/06 01:35:50;;;;;;;3.43;3.00;;;22.50;83.20;;;25.33;53.02;101980.41;4994600;28;20230;-64
2023/09/06 01:38:17;;;;;;;3.40;2.87;;;22.50;83.10;;;25.31;52.94;101975.28;4992347;28;20234;-64
2023/09/06 01:40:46;;;;;;;2.87;2.67;;;22.50;83.00;;;25.29;52.22;101977.34;4995038;28;20514;-62
2023/09/06 01:43:13;;;;;;;2.87;2.67;;;22.50;83.00;;;25.27;53.04;101979.47;4994691;28;20196;-65
2023/09/06 01:45:45;;;;;;;2.87;2.67;;;22.50;82.90;;;25.26;52.43;101972.47;5007274;28;20261;-63
2023/09/06 01:48:12;;;;;;;3.50;2.87;;;22.40;82.80;;;25.24;52.90;101973.78;5005220;28;20255;-63
2023/09/06 01:50:41;;;;;;;3.57;3.10;;;22.40;82.70;;;25.21;52.47;101966.97;4994100;28;20196;-64
2023/09/06 01:53:08;;;;;;;3.63;3.33;;;22.40;82.70;;;25.18;52.58;101963.94;4994454;28;20226;-66
2023/09/06 01:55:35;;;;;;;4.47;3.30;;;22.40;82.80;;;25.14;53.07;101969.00;5001528;28;20306;-64
2023/09/06 01:58:05;;;;;;;3.27;3.00;;;22.40;83.00;;;25.09;53.14;101971.59;5014020;28;20215;-63
2023/09/06 02:00:34;;;;;;;3.07;2.70;;;22.40;83.10;;;25.06;53.33;101982.84;5005874;28;20247;-64
2023/09/06 02:03:01;;;;;;;4.03;3.07;;;22.40;83.00;;;25.05;53.24;101981.22;4994570;28;20202;-62
2023/09/06 02:05:31;;;;;;;2.60;2.40;;;22.40;83.00;;;25.03;53.26;101977.13;4994422;28;20549;-62
2023/09/06 02:07:59;;;;;;;3.53;2.93;;;22.30;82.90;;;25.00;52.83;101983.81;4996316;28;20697;-62
2023/09/06 02:10:27;;;;;;;2.90;2.57;;;22.30;82.90;;;24.96;53.49;101979.94;5012653;28;20269;-63
2023/09/06 02:12:54;;;;;;;7.20;3.40;;;22.30;83.00;;;24.96;53.06;101984.53;5013082;28;20560;-61
2023/09/06 02:15:25;;;;;;;3.73;3.20;;;22.30;83.00;;;24.94;53.02;101979.38;4994441;28;20278;-63
2023/09/06 02:17:52;;;;;;;5.87;3.70;;;22.30;83.10;;;24.93;53.41;101983.16;4997496;28;20290;-63
2023/09/06 02:20:20;;;;;;;4.10;2.73;;;22.30;83.20;;;24.91;53.38;101979.88;5013807;28;20195;-63
2023/09/06 02:22:52;;;;;;;3.00;2.80;;;22.20;83.20;;;24.89;52.95;101987.34;5013691;28;20618;-63
2023/09/06 02:25:24;;;;;;;3.37;2.90;;;22.20;83.30;;;24.85;52.97;101983.50;5019965;28;20245;-64
2023/09/06 02:27:52;;;;;;;3.23;2.90;;;22.10;83.20;;;24.82;53.65;101986.66;5033898;28;20607;-63
2023/09/06 02:30:20;;;;;;;4.30;3.17;;;22.10;83.60;;;24.81;53.73;101990.44;5020083;28;20218;-63
2023/09/06 02:32:49;;;;;;;3.07;2.80;;;22.10;83.70;;;24.80;53.69;101988.78;5022335;28;20642;-62
2023/09/06 02:35:16;;;;;;;3.57;3.10;;;22.00;83.80;;;24.74;54.01;101985.16;5037483;28;20202;-63
2023/09/06 02:37:43;;;;;;;3.63;3.27;;;22.00;84.00;;;24.73;53.38;101985.38;5036490;28;20765;-64
2023/09/06 02:40:14;;;;;;;2.90;2.63;;;22.00;84.10;;;24.69;53.65;101984.22;5025451;28;20180;-63
2023/09/06 02:42:41;;;;;;;3.13;2.83;;;21.90;84.00;;;24.64;53.42;101982.25;5017875;28;20176;-64
2023/09/06 02:45:11;;;;;;;2.87;2.67;;;21.90;84.30;;;24.61;53.69;101982.72;5022033;28;20206;-64
2023/09/06 02:47:39;;;;;;;3.20;2.60;;;21.80;84.20;;;24.57;53.88;101989.63;5032695;28;20302;-64
2023/09/06 02:50:12;;;;;;;2.67;2.47;;;21.70;84.30;;;24.52;54.21;101978.75;5006499;28;20243;-64
2023/09/06 02:52:44;;;;;;;3.00;2.70;;;21.70;84.70;;;24.49;53.77;101986.47;4997828;28;20278;-64
2023/09/06 02:55:13;;;;;;;5.30;3.37;;;21.70;84.80;;;24.45;53.80;101990.69;4997997;28;20614;-63
2023/09/06 02:57:41;;;;;;;3.77;2.83;;;21.60;85.00;;;24.42;54.26;101993.84;4997594;28;20282;-63
2023/09/06 03:00:26;;;;;;;3.17;2.87;;;21.60;85.10;;;24.39;54.26;101986.25;5006779;28;20623;-64
2023/09/06 03:02:58;;;;;;;3.43;3.10;;;21.50;85.20;;;24.35;54.13;101990.44;5017432;28;20542;-63
2023/09/06 03:05:28;;;;;;;3.07;2.50;;;21.50;85.50;;;24.36;54.76;101986.72;5016829;28;20201;-63
2023/09/06 03:07:55;;;;;;;3.23;2.97;;;21.50;85.70;;;24.36;54.43;101986.72;5016958;28;20286;-63
2023/09/06 03:10:23;;;;;;;3.70;2.80;;;21.50;85.70;;;24.36;54.86;101987.53;5016259;28;20578;-62
2023/09/06 03:12:54;;;;;;;4.40;3.30;;;21.50;85.70;;;24.36;54.66;101984.03;5015516;28;20313;-63
2023/09/06 03:15:23;;;;;;;4.23;3.17;;;21.50;85.90;;;24.38;54.64;101990.81;4997510;28;20188;-63
2023/09/06 03:17:51;;;;;;;3.73;2.60;;;21.50;85.90;;;24.40;54.79;101993.25;5000348;28;20614;-63
2023/09/06 03:20:34;;;;;;;3.43;2.67;;;21.50;85.90;;;24.40;54.90;101998.66;5006431;28;20283;-63
2023/09/06 03:23:16;;;;;;;3.30;2.80;;;21.50;85.90;;;24.39;55.07;101991.63;4998727;28;20246;-61
2023/09/06 03:25:44;;;;;;;2.67;2.47;;;21.60;86.00;;;24.40;54.46;101993.25;5016361;28;20190;-62
2023/09/06 03:28:12;;;;;;;3.80;3.20;;;21.60;85.70;;;24.39;54.55;101997.81;5036447;28;20220;-62
2023/09/06 03:30:39;;;;;;;3.50;3.00;;;21.50;85.50;;;24.40;54.65;101993.25;5012126;28;20212;-63
2023/09/06 03:33:06;;;;;;;3.67;2.90;;;21.50;85.70;;;24.37;54.66;101989.16;5012418;28;20195;-63
2023/09/06 03:35:33;;;;;;;2.90;2.63;;;21.60;85.60;;;24.36;54.28;101992.94;5036687;28;20605;-63
2023/09/06 03:38:02;;;;;;;3.17;2.70;;;21.50;85.50;;;24.34;54.32;101994.22;5035260;28;20221;-62
2023/09/06 03:40:37;;;;;;;3.37;3.07;;;21.50;85.50;;;24.32;54.70;101999.00;5023223;28;20225;-64
2023/09/06 03:43:05;;;;;;;2.97;2.63;;;21.50;85.50;;;24.28;54.72;102000.50;5015282;28;20179;-64
2023/09/06 03:45:34;;;;;;;3.80;2.70;;;21.50;85.40;;;24.25;54.58;101995.63;5018382;28;20608;-64
2023/09/06 03:48:01;;;;;;;3.37;3.00;;;21.40;85.40;;;24.21;54.33;101996.09;5020096;28;20235;-63
2023/09/06 03:50:29;;;;;;;4.23;2.97;;;21.40;85.40;;;24.18;54.23;101993.84;4996326;28;20243;-64
2023/09/06 03:52:57;;;;;;;3.57;2.87;;;21.40;85.50;;;24.16;54.52;101993.28;4996789;28;20196;-64
2023/09/06 03:55:25;;;;;;;2.90;2.70;;;21.40;85.50;;;24.13;54.46;102007.19;5002003;28;20203;-64
2023/09/06 03:57:52;;;;;;;3.53;3.23;;;21.30;85.40;;;24.10;55.07;102004.94;5015828;28;20217;-64
2023/09/06 04:00:31;;;;;;;3.93;2.83;;;21.30;85.50;;;24.07;55.05;102005.44;5007981;28;20525;-64
2023/09/06 04:02:58;;;;;;;3.27;2.97;;;21.30;85.60;;;24.03;55.00;101998.81;5000408;28;20282;-65
2023/09/06 04:05:26;;;;;;;3.33;2.70;;;21.30;85.60;;;24.04;54.72;102000.47;5015901;28;20191;-64
2023/09/06 04:07:56;;;;;;;4.17;3.10;;;21.30;85.60;;;24.02;54.71;101999.91;5015627;28;20211;-63
2023/09/06 04:10:35;;;;;;;5.73;3.00;;;21.30;85.70;;;24.03;54.60;101998.03;5011426;28;20270;-64
2023/09/06 04:13:03;;;;;;;3.63;3.33;;;21.30;85.70;;;24.02;55.05;101999.91;5013062;28;20197;-64
2023/09/06 04:15:30;;;;;;;3.30;2.83;;;21.30;85.90;;;24.03;55.29;101998.81;4996218;28;20199;-64
2023/09/06 04:17:58;;;;;;;5.17;2.93;;;21.30;85.90;;;24.05;55.03;101996.75;4999622;28;20211;-64
2023/09/06 04:20:27;;;;;;;5.37;3.00;;;21.30;85.90;;;24.08;55.30;102001.69;5005650;28;20240;-62
2023/09/06 04:22:54;;;;;;;3.20;2.90;;;21.30;86.00;;;24.10;54.83;102004.94;4996096;28;20278;-63
2023/09/06 04:25:22;;;;;;;4.00;3.07;;;21.30;85.90;;;24.11;55.30;102006.59;5009298;28;20194;-63
2023/09/06 04:27:54;;;;;;;4.57;2.70;;;21.30;85.90;;;24.12;54.82;102008.25;5034989;28;20218;-63
2023/09/06 04:30:23;;;;;;;4.03;3.30;;;21.40;86.00;;;24.14;55.13;102008.00;5012615;28;20224;-64
2023/09/06 04:32:50;;;;;;;3.30;2.93;;;21.40;85.90;;;24.13;55.25;102012.56;5006862;28;20277;-64
2023/09/06 04:35:18;;;;;;;3.50;3.20;;;21.40;85.90;;;24.13;55.34;102012.56;5035609;28;20221;-64
2023/09/06 04:37:45;;;;;;;4.43;3.10;;;21.40;86.00;;;24.15;54.92;102013.16;5032568;28;20293;-65
2023/09/06 04:40:13;;;;;;;3.00;2.80;;;21.40;86.00;;;24.16;54.81;102014.78;5008065;28;20227;-63
2023/09/06 04:42:41;;;;;;;3.50;3.20;;;21.40;86.20;;;24.18;55.04;102018.06;4995782;28;20702;-62
2023/09/06 04:45:11;;;;;;;3.23;3.03;;;21.40;86.20;;;24.20;55.18;102025.91;5008800;28;20545;-64
2023/09/06 04:47:43;;;;;;;3.40;2.90;;;21.40;86.30;;;24.21;54.64;102016.78;5026333;28;20208;-62
2023/09/06 04:50:11;;;;;;;3.60;2.80;;;21.40;86.20;;;24.18;54.79;102023.44;5007453;28;20626;-64
2023/09/06 04:52:45;;;;;;;6.83;3.10;;;21.40;86.00;;;24.18;54.57;102014.56;5014902;28;20195;-63
2023/09/06 04:55:14;;;;;;;5.53;3.27;;;21.40;86.10;;;24.19;55.09;102017.03;5014499;28;20197;-63
2023/09/06 04:57:42;;;;;;;6.20;3.20;;;21.40;86.10;;;24.20;54.82;102025.91;5004489;28;20582;-63
2023/09/06 05:00:18;;;;;;;3.27;2.97;;;21.40;86.10;;;24.17;54.52;102021.84;4995136;28;20278;-63
2023/09/06 05:02:47;;;;;;;5.70;3.60;;;21.40;86.10;;;24.17;55.28;102027.22;4995263;28;20250;-62
2023/09/06 05:05:15;;;;;;;5.23;3.30;;;21.40;86.10;;;24.16;54.82;102020.19;4995103;28;20195;-63
2023/09/06 05:07:44;;;;;;;3.50;3.20;;;21.40;86.10;;;24.14;55.42;102016.91;4994177;28;20288;-63
2023/09/06 05:10:12;;;;;;;5.57;3.17;;;21.40;86.40;;;24.13;55.35;102026.03;5006331;28;20529;-63
2023/09/06 05:12:39;;;;;;;3.63;3.07;;;21.40;86.40;;;24.12;55.17;102019.00;5014505;28;20279;-64
2023/09/06 05:15:08;;;;;;;3.77;3.10;;;21.40;86.40;;;24.11;55.16;102017.38;4995691;28;20198;-65
2023/09/06 05:17:36;;;;;;;3.10;2.87;;;21.40;86.40;;;24.13;55.62;102026.03;4995528;28;20298;-63
2023/09/06 05:20:28;;;;;;;4.07;3.57;;;21.40;86.40;;;24.09;55.35;102035.63;5003878;28;20195;-65
2023/09/06 05:22:57;;;;;;;3.20;2.90;;;21.40;86.50;;;24.12;55.36;102035.16;4994712;28;20180;-63
2023/09/06 05:25:25;;;;;;;7.80;7.00;;;21.40;86.40;;;24.15;55.16;102042.75;4998927;28;20282;-64
2023/09/06 05:27:57;;;;;;;6.10;5.33;;;21.40;86.40;;;24.19;55.23;102040.44;5032363;28;20654;-64
2023/09/06 05:30:24;;;;;;;6.63;5.00;;;21.40;87.20;;;24.26;55.51;102045.69;5020553;28;20211;-64
2023/09/06 05:32:54;;;;;;;4.47;3.30;;;21.50;86.70;;;24.29;54.75;102040.69;5020166;28;20716;-62
2023/09/06 05:35:21;;;;;;;15.23;11.90;;;21.50;86.60;;;24.34;54.83;102048.06;4995718;28;20294;-63
2023/09/06 05:37:49;;;;;;;4.90;4.50;;;21.50;86.50;;;24.39;54.98;102050.88;4993802;28;20683;-66
2023/09/06 05:40:22;;;;;;;6.10;4.30;;;21.50;86.40;;;24.42;54.97;102056.59;5000875;28;20207;-64
2023/09/06 05:42:49;;;;;;;5.17;3.77;;;21.60;86.50;;;24.42;54.97;102056.59;4994018;28;20192;-64
2023/09/06 05:45:18;;;;;;;4.43;3.83;;;21.60;86.20;;;24.40;55.13;102060.56;5013720;28;20190;-66
2023/09/06 05:47:45;;;;;;;3.50;3.20;;;21.60;86.20;;;24.31;55.37;102057.41;5027242;28;20218;-65
2023/09/06 05:50:14;;;;;;;4.03;3.63;;;21.60;86.20;;;24.31;55.20;102061.97;5013755;28;20283;-63
2023/09/06 05:52:41;;;;;;;5.63;3.27;;;21.60;86.20;;;24.32;54.90;102063.63;5013429;28;20210;-64
2023/09/06 05:55:10;;;;;;;4.20;3.27;;;21.60;86.50;;;24.37;55.25;102063.72;4997762;28;20274;-64
2023/09/06 05:57:38;;;;;;;4.33;3.43;;;21.60;86.50;;;24.39;55.22;102067.81;5013493;28;20249;-64
2023/09/06 06:00:12;;;;;;;4.00;3.57;;;21.60;86.50;;;24.45;54.67;102066.06;5004165;28;20226;-64
2023/09/06 06:02:41;;;;;;;5.20;3.60;;;21.70;86.50;;;24.44;54.86;102059.84;4993579;28;20195;-62
2023/09/06 06:05:09;;;;;;;5.30;3.27;;;21.70;86.40;;;24.44;55.13;102069.84;4992535;28;20199;-65
2023/09/06 06:07:38;;;;;;;4.67;3.67;;;21.70;86.30;;;24.43;55.45;102069.00;4992805;28;20549;-64
2023/09/06 06:10:09;;;;;;;4.10;3.70;;;21.70;86.30;;;24.46;55.03;102067.72;4993091;28;20306;-64
2023/09/06 06:12:37;;;;;;;5.00;3.30;;;21.70;86.40;;;24.48;55.29;102071.00;4994030;28;20223;-65
2023/09/06 06:15:08;;;;;;;3.70;3.30;;;21.70;86.40;;;24.52;55.13;102062.22;5012645;28;20557;-64
2023/09/06 06:17:35;;;;;;;6.43;3.67;;;21.80;86.40;;;24.55;55.18;102071.69;5019190;28;20221;-63
2023/09/06 06:20:06;;;;;;;4.67;4.27;;;21.80;86.30;;;24.60;54.78;102069.13;5004724;28;20195;-63
2023/09/06 06:22:37;;;;;;;4.20;3.90;;;21.80;86.30;;;24.64;55.08;102070.28;4993528;28;20671;-63
2023/09/06 06:25:10;;;;;;;5.20;4.70;;;21.80;86.30;;;24.67;54.97;102075.22;5009420;28;20278;-63
2023/09/06 06:27:38;;;;;;;5.90;3.90;;;21.90;86.30;;;24.73;54.35;102075.09;5005328;28;20221;-64
2023/09/06 06:30:07;;;;;;;4.77;3.70;;;21.90;86.20;;;24.80;54.44;102058.81;5001003;28;20586;-63
2023/09/06 06:32:36;;;;;;;6.73;4.60;;;22.00;86.10;;;24.85;54.34;102069.72;5003886;28;20250;-63
2023/09/06 06:35:08;;;;;;;5.17;4.67;;;22.00;85.90;;;24.91;54.04;102066.09;5003853;28;20199;-62
2023/09/06 06:37:35;;;;;;;5.67;3.70;;;22.10;85.80;;;24.93;54.05;102068.53;5001120;28;20222;-63
2023/09/06 06:40:05;;;;;;;6.07;3.90;;;22.10;85.60;;;24.97;54.47;102065.13;5020240;28;20200;-64
2023/09/06 06:42:34;;;;;;;6.30;4.10;;;22.20;85.60;;;25.02;54.18;102067.94;5007766;28;20205;-64
2023/09/06 06:45:04;;;;;;;5.03;3.43;;;22.20;85.50;;;25.05;53.96;102072.88;5004442;28;20199;-65
2023/09/06 06:47:31;;;;;;;3.50;3.20;;;22.30;85.30;;;25.11;53.47;102077.28;5000995;28;20207;-63
2023/09/06 06:50:03;;;;;;;4.87;3.67;;;22.30;85.20;;;25.18;53.82;102077.97;4999954;28;20226;-63
2023/09/06 06:52:31;;;;;;;17.90;16.20;;;22.40;84.90;;;25.27;53.75;102081.13;5000720;28;20232;-63
2023/09/06 06:55:02;;;;;;;9.67;8.73;;;22.50;85.00;;;25.38;53.71;102083.78;5000674;28;20207;-64
2023/09/06 06:57:29;;;;;;;4.33;3.93;;;22.50;84.80;;;25.47;53.31;102082.38;5002011;28;20235;-63
2023/09/06 06:59:57;;;;;;;7.60;4.03;;;22.60;84.40;;;25.53;52.27;102086.81;4999612;28;20274;-66
2023/09/06 07:02:25;;;;;;;6.10;3.80;;;22.70;84.00;;;25.60;53.03;102080.47;5008722;28;20207;-65
2023/09/06 07:04:54;;;;;;;5.93;4.17;;;22.70;84.00;;;25.68;52.60;102082.75;5008804;28;20291;-64
2023/09/06 07:07:24;;;;;;;5.43;3.87;;;22.80;83.90;;;25.82;52.87;102089.50;5009675;28;20589;-64
2023/09/06 07:09:51;;;;;;;5.03;4.10;;;22.90;84.10;;;26.17;51.71;102093.66;5007133;28;20219;-64
2023/09/06 07:12:18;;;;;;;4.23;3.40;;;23.00;83.80;;;26.56;51.27;102091.88;5003106;28;20210;-64
2023/09/06 07:14:46;;;;;;;3.80;3.30;;;23.20;83.30;;;27.09;50.35;102090.47;5001455;28;20227;-63
2023/09/06 07:17:14;;;;;;;5.07;3.30;;;23.50;83.40;;;27.73;49.40;102094.22;5002768;28;20326;-63
2023/09/06 07:19:44;;;;;;;3.57;3.27;;;23.80;82.70;;;28.37;47.88;102093.22;5014437;28;20191;-65
2023/09/06 07:22:11;;;;;;;3.57;3.27;;;24.30;81.30;;;29.07;46.77;102094.75;5005307;28;20231;-66
2023/09/06 07:24:39;;;;;;;2.70;2.50;;;24.80;81.30;;;29.96;46.05;102093.44;4997684;28;20203;-65
2023/09/06 07:27:06;;;;;;;3.10;2.80;;;25.40;80.10;;;30.75;42.89;102088.22;5010383;28;20206;-63
2023/09/06 07:29:33;;;;;;;5.70;5.10;;;26.10;76.50;;;31.57;41.70;102096.94;5006431;28;20192;-66
2023/09/06 07:32:00;;;;;;;5.00;3.00;;;26.70;75.40;;;32.38;40.37;102099.88;5013168;28;20215;-65
2023/09/06 07:34:30;;;;;;;2.67;2.47;;;27.40;72.50;;;33.17;38.82;102104.75;5011966;28;20206;-66
2023/09/06 07:36:57;;;;;;;2.37;2.27;;;28.10;70.70;;;33.94;36.87;102100.69;5014984;28;20199;-65
2023/09/06 07:39:25;;;;;;;3.03;2.40;;;28.70;67.40;;;34.47;34.72;102101.19;5006872;28;20230;-65
2023/09/06 07:41:53;;;;;;;4.37;2.40;;;29.20;62.80;;;34.73;34.30;102103.16;5005737;28;20204;-62
2023/09/06 07:44:20;;;;;;;2.63;2.43;;;29.70;60.70;;;34.94;33.61;102102.75;5009694;28;20242;-64
2023/09/06 07:46:48;;;;;;;4.23;2.80;;;30.10;59.20;;;35.32;32.32;102099.50;5007460;28;20203;-63
2023/09/06 07:49:16;;;;;;;4.57;3.00;;;30.50;58.30;;;35.83;32.30;102099.16;5005362;28;20223;-65
2023/09/06 07:51:45;;;;;;;3.80;2.75;;;30.90;57.20;;;36.40;31.85;102102.13;5013421;28;20574;-63
2023/09/06 07:54:12;;;;;;;4.28;3.05;;;31.30;56.70;;;37.01;30.91;102107.63;5021050;28;20261;-65
2023/09/06 07:56:39;;;;;;;4.25;2.88;;;31.80;56.20;;;37.63;29.89;102101.91;5013106;28;20658;-65
2023/09/06 07:59:10;;;;;;;2.90;2.45;;;32.20;54.80;;;38.35;29.28;102116.59;5000466;28;20219;-65
2023/09/06 08:01:37;;;;;;;3.03;2.50;;;32.70;54.10;;;38.95;27.86;102113.63;5007040;28;20203;-65
2023/09/06 08:04:05;;;;;;;2.95;2.75;;;33.10;52.40;;;39.39;27.21;102109.47;5006992;28;20277;-63
2023/09/06 08:06:32;;;;;;;5.35;2.65;;;33.50;49.70;;;39.74;26.44;102108.06;5012850;28;20202;-62
2023/09/06 08:09:01;;;;;;;6.43;3.55;;;34.00;49.70;;;40.18;25.86;102108.44;5010570;28;20227;-63
2023/09/06 08:11:28;;;;;;;3.75;2.97;;;34.30;47.70;;;40.66;25.68;102114.09;5021778;28;20416;-65
2023/09/06 08:13:55;;;;;;;4.97;2.83;;;34.70;47.00;;;40.95;24.36;102108.38;5001601;28;20237;-64
2023/09/06 08:16:23;;;;;;;3.33;2.97;;;35.00;44.80;;;41.14;24.11;102116.88;5007103;28;20314;-67
2023/09/06 08:18:50;;;;;;;4.18;2.92;;;35.30;44.30;;;41.37;24.50;102111.66;5007051;28;20697;-65
2023/09/06 08:21:19;;;;;;;3.55;2.83;;;35.60;43.60;;;41.71;24.22;102115.84;5000567;28;20210;-66
2023/09/06 08:23:46;;;;;;;2.80;2.38;;;35.90;43.70;;;41.98;23.38;102112.25;5002962;28;20199;-64
2023/09/06 08:26:14;;;;;;;3.35;2.45;;;36.20;42.70;;;42.42;23.40;102116.63;5010562;28;20596;-64
2023/09/06 08:28:41;;;;;;;3.15;2.45;;;36.50;42.40;;;42.90;22.49;102109.13;5002728;28;20304;-64
2023/09/06 08:31:08;;;;;;;4.72;2.88;;;36.70;41.30;;;43.17;22.44;102119.25;5001471;28;20219;-66
2023/09/06 08:33:36;;;;;;;2.83;2.30;;;36.90;41.00;;;43.32;22.40;102112.88;5004693;28;20200;-65
2023/09/06 08:36:04;;;;;;;5.15;2.30;;;37.20;40.90;;;43.60;22.25;102121.78;5003986;28;20206;-65
2023/09/06 08:38:32;;;;;;;3.83;2.60;;;37.50;40.50;;;43.65;21.12;102115.94;4987181;28;20256;-65
2023/09/06 08:41:02;;;;;;;3.40;2.45;;;37.60;38.70;;;43.66;21.91;102106.47;5021711;28;20204;-65
2023/09/06 08:43:36;;;;;;;3.53;2.65;;;37.90;39.10;;;43.62;22.07;102110.34;5008197;28;20208;-65
2023/09/06 08:46:16;;;;;;;3.95;2.60;;;37.90;38.70;;;43.52;21.92;102117.28;5000981;28;20214;-66
2023/09/06 08:48:45;;;;;;;7.60;6.88;;;38.10;38.80;;;43.68;22.08;102108.88;4987556;28;20246;-63
2023/09/06 08:51:15;;;;;;;3.38;2.60;;;38.10;38.80;;;43.98;21.28;102106.31;4994144;28;20226;-66
2023/09/06 08:53:43;;;;;;;3.10;2.20;;;38.20;38.40;;;44.20;21.30;102102.75;5001532;28;20201;-64
2023/09/06 08:56:15;;;;;;;3.28;2.80;;;38.20;38.20;;;44.51;21.08;102107.25;4993599;28;20572;-64
2023/09/06 08:58:44;;;;;;;4.88;4.43;;;38.40;38.10;;;44.90;20.88;102103.16;4998820;28;20211;-64
2023/09/06 09:01:11;;;;;;;5.28;4.32;;;38.60;38.30;;;45.52;20.88;102102.44;5004167;28;20254;-64
2023/09/06 09:03:38;;;;;;;5.78;2.50;;;38.90;38.40;;;45.99;19.76;102115.72;5010177;28;20668;-64
2023/09/06 09:06:08;;;;;;;3.58;3.28;;;39.20;36.70;;;46.39;19.59;102116.91;4995033;28;20207;-64
2023/09/06 09:08:36;;;;;;;3.83;2.90;;;39.60;36.70;;;46.71;19.34;102118.00;5000280;28;20641;-64
2023/09/06 09:11:11;;;;;;;3.33;3.03;;;39.90;36.30;;;46.96;19.06;102111.38;4999926;28;20594;-64
2023/09/06 09:13:39;;;;;;;3.78;2.28;;;40.20;34.70;;;47.15;18.77;102113.09;5006268;28;20241;-66
2023/09/06 09:16:09;;;;;;;4.20;2.80;;;40.40;34.80;;;47.30;18.49;102113.97;5013067;28;20269;-64
2023/09/06 09:18:38;;;;;;;4.63;3.08;;;40.60;34.20;;;47.33;18.54;102114.00;5006123;28;20314;-64
2023/09/06 09:21:09;;;;;;;7.70;2.83;;;40.90;33.90;;;47.43;18.33;102118.81;5011207;28;20215;-64
2023/09/06 09:23:44;;;;;;;4.25;2.58;;;41.00;33.50;;;47.44;18.07;102112.06;5001512;28;20231;-62
2023/09/06 09:26:11;;;;;;;2.72;2.53;;;41.10;32.80;;;47.44;18.26;102112.06;5014241;28;20661;-63
2023/09/06 09:28:41;;;;;;;4.40;3.35;;;41.30;33.70;;;47.78;17.96;102114.53;5009756;28;20212;-63
2023/09/06 09:31:15;;;;;;;3.33;2.80;;;41.30;32.90;;;48.12;17.30;102113.03;5004037;28;20226;-65
2023/09/06 09:33:44;;;;;;;6.63;4.95;;;41.50;31.80;;;48.27;17.12;102109.06;5000097;28;20203;-64
2023/09/06 09:36:14;;;;;;;3.50;3.22;;;41.60;31.20;;;48.46;17.00;102111.47;5009616;28;20226;-64
2023/09/06 09:38:42;;;;;;;3.78;2.38;;;41.80;30.90;;;48.69;16.97;102106.25;5007073;28;20310;-64
2023/09/06 09:41:10;;;;;;;3.53;2.53;;;41.90;30.20;;;48.85;16.23;102109.47;4997970;28;20200;-64
2023/09/06 09:43:37;;;;;;;3.35;2.10;;;42.00;30.00;;;48.77;16.77;102110.63;5009916;28;20253;-69
2023/09/06 09:46:06;;;;;;;6.93;4.03;;;42.10;30.00;;;48.78;16.64;102112.25;5006079;28;20655;-63
2023/09/06 09:48:36;;;;;;;3.38;2.80;;;42.20;30.10;;;48.94;16.65;102111.03;5003493;28;20214;-64
2023/09/06 09:51:16;;;;;;;2.60;2.40;;;42.30;30.00;;;49.24;15.90;102112.13;5000170;28;20226;-63
2023/09/06 09:53:43;;;;;;;5.05;3.22;;;42.50;30.00;;;49.22;15.94;102108.94;5006277;28;20203;-64
2023/09/06 09:56:11;;;;;;;7.53;2.60;;;42.50;29.50;;;49.09;15.82;102113.38;4995440;28;20294;-64
2023/09/06 09:58:40;;;;;;;5.90;5.40;;;42.60;29.40;;;49.05;15.96;102109.00;5003099;28;20305;-64
2023/09/06 10:01:10;;;;;;;6.15;4.88;;;42.60;29.50;;;48.90;16.05;102108.25;5006010;28;20202;-65
2023/09/06 10:03:42;;;;;;;5.53;3.00;;;42.40;29.30;;;48.67;16.61;102100.25;5012624;28;20269;-63
2023/09/06 10:06:11;;;;;;;5.43;3.80;;;42.30;29.20;;;48.19;16.60;102107.47;5004684;28;20639;-63
2023/09/06 10:08:43;;;;;;;3.60;2.78;;;41.90;29.10;;;47.54;17.07;102111.31;5002774;28;20350;-63
2023/09/06 10:11:17;;;;;;;4.97;3.67;;;41.70;29.60;;;46.87;17.31;102112.91;5000475;28;20213;-62
2023/09/06 10:13:46;;;;;;;3.30;3.03;;;41.10;29.60;;;46.19;18.37;102103.16;5007388;28;20202;-64
2023/09/06 10:16:14;;;;;;;3.22;2.42;;;40.90;30.40;;;45.51;18.60;102100.00;5010193;28;20670;-64
2023/09/06 10:18:43;;;;;;;3.55;2.53;;;40.40;30.40;;;44.72;18.72;102102.84;4999880;28;20287;-64
2023/09/06 10:21:13;;;;;;;3.30;2.33;;;39.90;30.70;;;43.89;19.58;102098.19;5000132;28;20314;-65